Airfield :
LOGIN :

Register | Disclaimer

   EN    FR    IT 

 










Legend :    VFR   Marginal VFR   IFR   Intensive IFR   Very Intensive IFR
Visi :
Ceiling :
>= 8 km
>= 3000ft
5 to 8 km
1000 to 3000 ft
1500m to 5 km
500 to 1000 ft
800 to 1500m
200 to 500 ft
< 800m
< 200 ft
Symbols :   Thunderstorms  Fog  Heavy snow  Heavy precipitations  Wind > 20 kt
SIGMETs :     Misc.  Thunderstorms  Icing  Turbulence  Mountain Waves  Volcanic Ashes







- Airport Elevation : 1455 ft


ETIH - Hohenfels Army Air Field

CURRENT METAR :
  • 220117Z AUTO 28007KT 9999 BKN028 OVC080 08/07 A3034 RMK AO2 CIG 027V080 BKN V SCT SLP283 $

EXPIRED METARs :
  • 220103Z AUTO 29006KT 9999 BKN027 OVC080 08/07 A3034 RMK AO2 CIG 027V080 BKN V SCT SLP283 $
  • 220023Z AUTO 29005KT 9999 SCT030 OVC075 08/07 A3034 RMK AO2 SLP283 $
  • 212356Z AUTO 29004KT 9999 OVC027 08/07 A3035 RMK AO2 SLP286 60000 T00780069 10078 20062 50000 $
  • 212322Z AUTO 31004KT 9999 BKN029 OVC034 08/07 A3036 RMK AO2 SLP289 $
  • 212256Z AUTO 27005KT 9999 OVC034 07/07 A3036 RMK AO2 RAB22E32 SLP289 P0000 T00740067 401081020 $
  • 212232Z AUTO 29004KT 9999 BKN037 OVC047 07/07 A3036 RMK AO2 RAB22E32 SLP292 $

Expired Forecast.
No reported NOTAMs for that airfield.



MET'MAP, your aeronautical weather chart ! - Copyright ORBIFLY December 2007 - Disclaimer

ORBIFLY MET'MAP TEAM :

Programming & Development : Alexandra Zaïnal
Concept & Development : Baudouin d'Aumeries
Co-Development & Prog : Marc-Olivier Méhu
Technical & hardware support : Manuel Goepfert

Contact : metmap@orbifly.com




SOURCES & CREDITS :

   NOAA